BFI - Boeing Fld/King County Intl

Pirep is a free, collaborative database of all public and private airports located within the United States. All pilots are welcome to contribute, edit, and improve any airport they have local knowledge about, no registration required.
Uploaded photos will be licensed under a CC BY-SA 4.0 license. Please only upload photos you have the rights to use.
Tags
Public
Museum
Food
Webcam
METAR / TAF
Events
Edit Tags
Camping
Lodging
Car Rental
Bicycles
Swimming
Golfing
Fishing
Hot Springs
Flying Clubs
Airpark
Upcoming Events
*
*
*

Where exactly on/near the airport is this event taking place?

Is there a webpage with more information for this event?

Who should be contacted for more information?

What is this event all about?

Repeat every
Description
Last updated: 2023-10-16 15:26:04 PDT
Transient Parking
Last updated: 2023-04-18 11:42:42 PDT
Fuel Location
Landing & Tie-down Fees
Last updated: 2023-04-18 11:42:42 PDT
Crew Car Availability
Flying Clubs
WiFi Access
Airport Statistics
Location: Seattle, WA
Elevation: 21ft
Sectional: Seattle
Activation date: Nov 1938
Fuel: 100LL, A (prices)
Runway 14R/32L: 10,007ft
Runway 14L/32R: 3,709ft
Access: Open to the public
Current Weather — VFR
  • Weather data is strictly informational and not for flight planning purposes.
  • METAR
    2024-05-30 01:53:00 PDT
    Ceiling Wind Temperature Dewpoint Weather Visbility
    3,200ft 90° @ 4kt 51°F 44°F N/A 10SM
    Clouds: Broken @ 3,200ft, Overcast @ 6,500ft
    Raw: KBFI 300853Z 09004KT 10SM BKN032 OVC065 11/07 A3040 RMK AO2 SLP294 T01060072 51008
  • TAF
    2024-05-30 02:00:00 PDT – 2024-05-30 04:00:00 PDT
    Ceiling Wind Weather Visbility
    4,500ft Variable Showers in vicinity 6SM
    Clouds: Scattered @ 3,000ft, Broken @ 4,500ft
    Raw: KBFI 300859Z 3009/3106 VRB04KT P6SM VCSH SCT030 BKN045 FM301100 16005KT P6SM OVC035 FM301600 VRB03KT P6SM FEW030 BKN045 FM301900 30005KT P6SM BKN060 FM310300 33005KT P6SM SCT070 SCT200
  • TAF
    2024-05-30 04:00:00 PDT – 2024-05-30 09:00:00 PDT
    Ceiling Wind Weather Visbility
    3,500ft 160° @ 5kt N/A 6SM
    Clouds: Overcast @ 3,500ft
    Raw: KBFI 300859Z 3009/3106 VRB04KT P6SM VCSH SCT030 BKN045 FM301100 16005KT P6SM OVC035 FM301600 VRB03KT P6SM FEW030 BKN045 FM301900 30005KT P6SM BKN060 FM310300 33005KT P6SM SCT070 SCT200
  • TAF
    2024-05-30 09:00:00 PDT – 2024-05-30 12:00:00 PDT
    Ceiling Wind Weather Visbility
    4,500ft Variable N/A 6SM
    Clouds: Few @ 3,000ft, Broken @ 4,500ft
    Raw: KBFI 300859Z 3009/3106 VRB04KT P6SM VCSH SCT030 BKN045 FM301100 16005KT P6SM OVC035 FM301600 VRB03KT P6SM FEW030 BKN045 FM301900 30005KT P6SM BKN060 FM310300 33005KT P6SM SCT070 SCT200
  • TAF
    2024-05-30 12:00:00 PDT – 2024-05-30 20:00:00 PDT
    Ceiling Wind Weather Visbility
    6,000ft 300° @ 5kt N/A 6SM
    Clouds: Broken @ 6,000ft
    Raw: KBFI 300859Z 3009/3106 VRB04KT P6SM VCSH SCT030 BKN045 FM301100 16005KT P6SM OVC035 FM301600 VRB03KT P6SM FEW030 BKN045 FM301900 30005KT P6SM BKN060 FM310300 33005KT P6SM SCT070 SCT200
  • TAF
    2024-05-30 20:00:00 PDT – 2024-05-30 23:00:00 PDT
    Ceiling Wind Weather Visbility
    Sky clear 330° @ 5kt N/A 6SM
    Clouds: Scattered @ 7,000ft, Scattered @ 20,000ft
    Raw: KBFI 300859Z 3009/3106 VRB04KT P6SM VCSH SCT030 BKN045 FM301100 16005KT P6SM OVC035 FM301600 VRB03KT P6SM FEW030 BKN045 FM301900 30005KT P6SM BKN060 FM310300 33005KT P6SM SCT070 SCT200
Click/tap to add an annotation marker to the map
Airport Webcam
Direct links to live image URLs will be displayed inline on this page. URLs to separate webpages will be linked to.
URL:
Direct links to live image URLs will be displayed inline on this page. URLs to separate webpages will be linked to.
URL:
Remarks
  • Estabd prior to 1959.
  • Tpa rwy 14l/32r 1000 msl; rwy 14r/32l 800 msl.
  • Touch and go lndgs prohibited 2200-0700.
  • Bird flocks within arpt vicinity. - check local advisories.
  • Flight notification service (adcus) avbl.
Comments
Leave a comment What was your experience like at this airport?